createdAt,value
2023-06-07T00:00:55.299Z,4.00
2023-06-07T00:02:56.901Z,4.30
2023-06-07T00:04:58.523Z,4.57
2023-06-07T00:07:00.136Z,4.35
2023-06-07T00:09:01.652Z,3.65
2023-06-07T00:11:04.569Z,3.95
2023-06-07T00:13:06.185Z,4.00
2023-06-07T00:15:08.315Z,4.03
2023-06-07T00:17:09.918Z,4.00
2023-06-07T00:19:11.496Z,4.30
2023-06-07T00:21:13.027Z,4.68
2023-06-07T00:23:14.578Z,4.05
2023-06-07T00:25:16.083Z,4.43
2023-06-07T00:27:19.484Z,3.95
2023-06-07T00:29:20.995Z,3.78
2023-06-07T00:31:22.649Z,4.57
2023-06-07T00:33:24.267Z,3.65
2023-06-07T00:35:25.845Z,3.65
2023-06-07T00:37:27.353Z,4.07
2023-06-07T00:39:28.881Z,3.90
2023-06-07T00:41:30.434Z,4.25
2023-06-07T00:43:33.304Z,4.10
2023-06-07T00:45:34.868Z,4.38
2023-06-07T00:47:38.214Z,4.20
2023-06-07T00:49:39.875Z,4.30
2023-06-07T00:51:41.477Z,4.22
2023-06-07T00:53:45.499Z,4.10
2023-06-07T00:55:47.085Z,4.30
2023-06-07T00:57:48.718Z,4.45
2023-06-07T00:59:51.856Z,4.60
2023-06-07T01:01:53.605Z,4.43
2023-06-07T01:03:56.053Z,4.28
2023-06-07T01:05:57.633Z,4.38
2023-06-07T01:07:59.478Z,4.00
2023-06-07T01:10:01.679Z,3.80
2023-06-07T01:12:05.653Z,4.53
2023-06-07T01:14:08.473Z,4.15
2023-06-07T01:16:11.510Z,4.63
2023-06-07T01:18:13.488Z,4.10
2023-06-07T01:20:20.433Z,4.53
2023-06-07T01:22:25.954Z,4.85
2023-06-07T01:24:28.907Z,5.03
2023-06-07T01:26:31.402Z,3.80
2023-06-07T01:28:34.862Z,4.03
2023-06-07T01:30:36.803Z,4.43
2023-06-07T01:32:40.747Z,3.45
2023-06-07T01:34:42.916Z,4.00
2023-06-07T01:36:44.747Z,4.47
2023-06-07T01:38:47.686Z,4.53
2023-06-07T01:40:52.547Z,4.38
2023-06-07T01:42:55.347Z,4.40
2023-06-07T01:44:59.378Z,4.20
2023-06-07T01:47:01.098Z,4.22
2023-06-07T01:49:04.349Z,3.53
2023-06-07T01:51:05.923Z,4.53
2023-06-07T01:53:07.430Z,4.00
2023-06-07T01:55:09.328Z,4.25
2023-06-07T01:57:22.674Z,4.35
2023-06-07T01:59:33.996Z,4.38
2023-06-07T02:01:43.224Z,4.55
2023-06-07T02:03:49.840Z,4.18
2023-06-07T02:05:57.360Z,4.88
2023-06-07T02:08:02.040Z,4.38
2023-06-07T02:10:05.316Z,4.60
2023-06-07T02:12:09.704Z,3.67
2023-06-07T02:14:13.172Z,4.22
2023-06-07T02:16:15.114Z,4.63
2023-06-07T02:18:20.054Z,4.13
2023-06-07T02:20:21.909Z,4.10
2023-06-07T02:22:23.424Z,3.80
2023-06-07T02:24:25.003Z,4.38
2023-06-07T02:26:26.531Z,4.53
2023-06-07T02:28:28.080Z,4.53
2023-06-07T02:30:30.980Z,4.68
2023-06-07T02:32:32.508Z,4.70
2023-06-07T02:34:34.080Z,4.00
2023-06-07T02:36:35.575Z,5.22
2023-06-07T02:38:37.094Z,4.30
2023-06-07T02:40:38.773Z,4.25
2023-06-07T02:42:44.215Z,4.43
2023-06-07T02:44:45.735Z,4.35
2023-06-07T02:46:48.703Z,4.63
2023-06-07T02:48:50.250Z,3.88
2023-06-07T02:50:51.783Z,4.13
2023-06-07T02:52:53.330Z,3.80
2023-06-07T02:54:54.877Z,4.70
2023-06-07T02:56:56.406Z,4.05
2023-06-07T02:58:57.964Z,4.07
2023-06-07T03:00:59.530Z,4.82
2023-06-07T03:03:02.493Z,4.20
2023-06-07T03:05:04.717Z,4.03
2023-06-07T03:07:06.515Z,4.00
2023-06-07T03:09:08.152Z,5.05
2023-06-07T03:11:09.683Z,4.80
2023-06-07T03:13:11.274Z,4.80
2023-06-07T03:15:12.884Z,4.65
2023-06-07T03:17:15.318Z,4.70
2023-06-07T03:19:18.184Z,4.80
2023-06-07T03:21:19.689Z,4.85
2023-06-07T03:23:21.229Z,4.70
2023-06-07T03:25:22.898Z,4.13
2023-06-07T03:27:24.576Z,4.70
2023-06-07T03:29:26.127Z,4.55
2023-06-07T03:31:27.760Z,4.90
2023-06-07T03:33:29.367Z,4.05
2023-06-07T03:35:32.234Z,4.57
2023-06-07T03:37:33.740Z,4.40
2023-06-07T03:39:35.528Z,4.78
2023-06-07T03:41:37.467Z,5.03
2023-06-07T03:43:39.014Z,4.20
2023-06-07T03:45:40.517Z,4.20
2023-06-07T03:47:42.101Z,4.90
2023-06-07T03:49:43.647Z,3.95
2023-06-07T03:51:46.518Z,4.63
2023-06-07T03:53:48.047Z,4.63
2023-06-07T03:55:49.680Z,4.53
2023-06-07T03:57:51.220Z,5.47
2023-06-07T03:59:52.802Z,4.32
2023-06-07T04:01:54.345Z,4.47
2023-06-07T04:03:55.982Z,4.75
2023-06-07T04:05:57.798Z,4.45
2023-06-07T04:08:00.830Z,4.43
2023-06-07T04:10:02.779Z,5.43
2023-06-07T04:12:05.608Z,4.72
2023-06-07T04:14:07.166Z,4.38
2023-06-07T04:16:08.862Z,4.22
2023-06-07T04:18:10.418Z,4.80
2023-06-07T04:20:12.861Z,4.63
2023-06-07T04:22:14.526Z,4.88
2023-06-07T04:24:17.510Z,4.57
2023-06-07T04:26:19.157Z,5.82
2023-06-07T04:28:21.007Z,5.18
2023-06-07T04:30:22.544Z,4.93
2023-06-07T04:32:24.094Z,5.05
2023-06-07T04:34:25.669Z,5.40
2023-06-07T04:36:27.188Z,4.57
2023-06-07T04:38:28.718Z,5.68
2023-06-07T04:40:31.780Z,4.68
2023-06-07T04:42:33.771Z,5.40
2023-06-07T04:44:35.341Z,4.32
2023-06-07T04:46:37.002Z,5.45
2023-06-07T04:48:38.631Z,5.30
2023-06-07T04:50:40.329Z,5.95
2023-06-07T04:52:41.817Z,5.22
2023-06-07T04:54:43.357Z,4.55
2023-06-07T04:56:46.312Z,4.80
2023-06-07T04:58:47.845Z,5.80
2023-06-07T05:00:49.620Z,4.63
2023-06-07T05:02:51.203Z,5.25
2023-06-07T05:04:52.802Z,5.50
2023-06-07T05:06:54.393Z,4.47
2023-06-07T05:08:56.015Z,4.90
2023-06-07T05:10:57.598Z,5.28
2023-06-07T05:13:00.509Z,4.93
2023-06-07T05:15:02.151Z,5.07
2023-06-07T05:17:03.832Z,5.43
2023-06-07T05:19:05.369Z,5.40
2023-06-07T05:21:06.891Z,5.22
2023-06-07T05:23:08.411Z,5.28
2023-06-07T05:25:11.374Z,5.03
2023-06-07T05:27:12.891Z,5.97
2023-06-07T05:29:15.777Z,5.32
2023-06-07T05:31:17.366Z,6.38
2023-06-07T05:33:18.913Z,5.38
2023-06-07T05:35:20.700Z,5.90
2023-06-07T05:37:22.283Z,5.50
2023-06-07T05:39:23.840Z,5.68
2023-06-07T05:41:25.362Z,5.45
2023-06-07T05:43:26.989Z,5.25
2023-06-07T05:45:29.949Z,5.07
2023-06-07T05:47:31.506Z,5.30
2023-06-07T05:49:33.050Z,5.50
2023-06-07T05:51:34.598Z,4.72
2023-06-07T05:53:36.101Z,5.82
2023-06-07T05:55:37.911Z,6.03
2023-06-07T05:57:39.446Z,5.55
2023-06-07T05:59:40.973Z,5.22
2023-06-07T06:01:43.954Z,5.38
2023-06-07T06:03:45.550Z,6.00
2023-06-07T06:05:47.095Z,5.82
2023-06-07T06:07:48.663Z,5.50
2023-06-07T06:09:50.219Z,6.10
2023-06-07T06:11:51.748Z,5.80
2023-06-07T06:13:53.286Z,5.82
2023-06-07T06:15:54.786Z,5.32
2023-06-07T06:17:57.806Z,5.38
2023-06-07T06:19:59.398Z,5.50
2023-06-07T06:22:00.923Z,5.18
2023-06-07T06:24:02.548Z,5.82
2023-06-07T06:26:04.242Z,4.78
2023-06-07T06:28:05.874Z,5.15
2023-06-07T06:30:09.228Z,5.10
2023-06-07T06:32:10.738Z,5.35
2023-06-07T06:34:13.624Z,6.13
2023-06-07T06:36:15.158Z,5.00
2023-06-07T06:38:16.668Z,4.82
2023-06-07T06:40:20.219Z,4.80
2023-06-07T06:44:23.101Z,5.25
2023-06-07T06:46:24.615Z,4.43
2023-06-07T06:48:26.168Z,5.05
2023-06-07T06:50:32.987Z,5.18
2023-06-07T06:52:35.259Z,4.85
2023-06-07T06:54:36.844Z,4.35
2023-06-07T06:56:38.425Z,4.82
2023-06-07T06:58:39.989Z,4.53
2023-06-07T07:00:41.576Z,4.97
2023-06-07T07:02:43.111Z,4.63
2023-06-07T07:04:44.638Z,4.88
2023-06-07T07:06:47.549Z,4.55
2023-06-07T07:08:49.043Z,4.07
2023-06-07T07:10:50.563Z,4.70
2023-06-07T07:12:53.512Z,3.83
2023-06-07T07:14:55.019Z,4.45
2023-06-07T07:16:56.735Z,4.38
2023-06-07T07:18:58.468Z,4.93
2023-06-07T07:20:59.998Z,4.63
2023-06-07T07:23:02.945Z,4.57
2023-06-07T07:25:05.037Z,4.53
2023-06-07T07:27:07.032Z,4.15
2023-06-07T07:29:08.600Z,4.65
2023-06-07T07:31:10.134Z,4.53
2023-06-07T07:33:12.149Z,4.10
2023-06-07T07:35:14.164Z,3.83
2023-06-07T07:37:15.874Z,3.90
2023-06-07T07:39:19.018Z,3.95
2023-06-07T07:41:20.666Z,3.88
2023-06-07T07:43:22.200Z,4.13
2023-06-07T07:45:23.694Z,3.97
2023-06-07T07:47:25.349Z,4.20
2023-06-07T07:49:26.879Z,3.72
2023-06-07T07:51:28.430Z,3.63
2023-06-07T07:53:30.028Z,3.58
2023-06-07T07:55:33.063Z,4.15
2023-06-07T07:57:34.709Z,3.53
2023-06-07T07:59:36.355Z,3.85
2023-06-07T08:01:37.965Z,3.85
2023-06-07T08:03:39.697Z,3.60
2023-06-07T08:05:41.448Z,3.83
2023-06-07T08:07:43.100Z,3.65
2023-06-07T08:09:45.157Z,3.95
2023-06-07T08:11:48.084Z,3.33
2023-06-07T08:13:49.624Z,3.17
2023-06-07T08:15:51.217Z,4.05
2023-06-07T08:17:52.792Z,3.80
2023-06-07T08:19:54.364Z,3.42
2023-06-07T08:21:55.880Z,3.75
2023-06-07T08:23:57.428Z,3.95
2023-06-07T08:25:59.048Z,3.67
2023-06-07T08:28:03.776Z,4.70
2023-06-07T08:30:06.913Z,3.45
2023-06-07T08:36:12.110Z,3.88
2023-06-07T08:38:13.708Z,3.22
2023-06-07T08:40:19.109Z,4.13
2023-06-07T08:42:20.832Z,3.63
2023-06-07T08:44:23.798Z,4.10
2023-06-07T08:46:26.083Z,4.00
2023-06-07T08:48:27.700Z,3.95
2023-06-07T08:50:30.025Z,3.72
2023-06-07T08:52:32.482Z,3.88
2023-06-07T08:54:34.716Z,3.78
2023-06-07T08:56:36.845Z,4.05
2023-06-07T08:58:38.526Z,3.90
2023-06-07T09:00:41.846Z,4.10
2023-06-07T09:02:43.562Z,3.65
2023-06-07T09:04:45.576Z,3.97
2023-06-07T09:06:47.149Z,3.70
2023-06-07T09:08:49.212Z,3.70
2023-06-07T09:10:51.068Z,4.03
2023-06-07T09:12:52.638Z,3.65
2023-06-07T09:14:55.108Z,3.67
2023-06-07T09:16:59.184Z,3.78
2023-06-07T09:19:00.766Z,3.45
2023-06-07T09:21:06.962Z,3.40
2023-06-07T09:23:10.410Z,3.63
2023-06-07T09:25:12.503Z,3.78
2023-06-07T09:27:14.384Z,3.50
2023-06-07T09:29:16.214Z,3.33
2023-06-07T09:31:28.464Z,4.22
2023-06-07T09:33:32.445Z,3.47
2023-06-07T09:35:34.051Z,3.30
2023-06-07T09:37:42.577Z,3.20
2023-06-07T09:39:44.109Z,3.20
2023-06-07T09:41:45.746Z,3.55
2023-06-07T09:43:49.053Z,3.40
2023-06-07T09:48:02.441Z,4.07
2023-06-07T09:50:09.821Z,3.63
2023-06-07T09:52:13.352Z,3.53
2023-06-07T09:54:14.969Z,3.40
2023-06-07T09:56:19.902Z,4.45
2023-06-07T09:58:22.015Z,3.60
2023-06-07T10:00:23.608Z,3.70
2023-06-07T10:02:26.093Z,3.90
2023-06-07T10:04:27.901Z,4.20
2023-06-07T10:06:32.579Z,3.13
2023-06-07T10:08:34.513Z,3.85
2023-06-07T10:10:36.554Z,3.92
2023-06-07T10:12:40.568Z,3.90
2023-06-07T10:14:45.590Z,3.40
2023-06-07T10:16:52.854Z,4.22
2023-06-07T10:18:58.127Z,4.00
2023-06-07T10:21:06.649Z,3.35
2023-06-07T10:23:14.900Z,3.25
2023-06-07T10:25:20.134Z,3.80
2023-06-07T10:27:24.660Z,3.67
2023-06-07T10:29:33.288Z,4.15
2023-06-07T10:31:41.185Z,3.53
2023-06-07T10:33:43.908Z,3.72
2023-06-07T10:35:47.578Z,3.88
2023-06-07T10:37:50.178Z,3.78
2023-06-07T10:39:53.118Z,3.33
2023-06-07T10:41:55.179Z,3.95
2023-06-07T10:43:56.865Z,3.58
2023-06-07T10:46:17.441Z,3.40
2023-06-07T10:48:35.902Z,3.10
2023-06-07T10:50:47.412Z,4.00
2023-06-07T10:52:55.902Z,3.85
2023-06-07T10:54:58.876Z,3.80
2023-06-07T10:57:01.483Z,3.70
2023-06-07T10:59:21.159Z,3.30
2023-06-07T11:01:23.692Z,4.30
2023-06-07T11:03:41.199Z,3.35
2023-06-07T11:06:07.652Z,3.85
2023-06-07T11:08:22.484Z,3.13
2023-06-07T11:10:35.094Z,3.30
2023-06-07T11:12:55.269Z,3.50
2023-06-07T11:15:20.982Z,3.22
2023-06-07T11:17:50.818Z,3.33
2023-06-07T11:19:55.505Z,3.72
2023-06-07T11:22:04.308Z,3.25
2023-06-07T11:24:13.146Z,3.50
2023-06-07T11:26:16.077Z,3.00
2023-06-07T11:28:23.368Z,3.30
2023-06-07T11:30:25.105Z,3.15
2023-06-07T11:32:26.833Z,3.38
2023-06-07T11:34:31.038Z,3.00
2023-06-07T11:36:33.172Z,3.10
2023-06-07T11:38:34.717Z,3.50
2023-06-07T11:40:37.978Z,3.38
2023-06-07T11:42:41.601Z,3.10
2023-06-07T11:44:44.658Z,3.10
2023-06-07T11:46:46.292Z,3.30
2023-06-07T11:48:47.886Z,3.05
2023-06-07T11:50:49.509Z,3.03
2023-06-07T11:52:53.037Z,3.05
2023-06-07T11:54:54.594Z,3.03
2023-06-07T11:56:56.214Z,3.00
2023-06-07T11:58:59.635Z,3.30
2023-06-07T12:01:02.013Z,3.10
2023-06-07T12:03:05.569Z,3.00
2023-06-07T12:05:09.456Z,3.50
2023-06-07T12:07:20.876Z,3.10
2023-06-07T12:09:22.473Z,2.85
2023-06-07T12:11:24.067Z,2.90
2023-06-07T12:13:25.620Z,2.72
2023-06-07T12:15:30.730Z,2.63
2023-06-07T12:17:33.186Z,3.13
2023-06-07T12:19:34.761Z,3.10
2023-06-07T12:21:36.318Z,4.15
2023-06-07T12:23:38.908Z,3.58
2023-06-07T12:25:41.098Z,3.75
2023-06-07T12:27:45.336Z,3.20
2023-06-07T12:29:54.169Z,2.97
2023-06-07T12:31:57.667Z,2.58
2023-06-07T12:34:01.506Z,2.80
2023-06-07T12:36:03.122Z,3.25
2023-06-07T12:38:05.002Z,2.90
2023-06-07T12:40:08.408Z,3.35
2023-06-07T12:42:10.149Z,2.85
2023-06-07T12:44:12.110Z,2.80
2023-06-07T12:46:13.758Z,2.92
2023-06-07T12:48:16.781Z,3.20
2023-06-07T12:50:18.359Z,3.67
2023-06-07T12:52:19.949Z,3.05
2023-06-07T12:54:21.558Z,2.90
2023-06-07T12:56:23.327Z,3.38
2023-06-07T12:58:24.836Z,3.35
2023-06-07T13:00:26.483Z,2.83
2023-06-07T13:02:28.594Z,2.60
2023-06-07T13:04:34.433Z,2.80
2023-06-07T13:06:36.088Z,2.95
2023-06-07T13:08:37.699Z,3.20
2023-06-07T13:10:39.230Z,2.90
2023-06-07T13:12:40.746Z,3.15
2023-06-07T13:14:42.599Z,2.97
2023-06-07T13:16:44.196Z,2.22
2023-06-07T13:18:45.824Z,3.22
2023-06-07T13:20:48.829Z,2.97
2023-06-07T13:22:50.416Z,3.15
2023-06-07T13:24:51.996Z,2.67
2023-06-07T13:26:54.691Z,3.03
2023-06-07T13:28:56.361Z,2.60
2023-06-07T13:30:57.913Z,2.72
2023-06-07T13:32:59.565Z,2.63
2023-06-07T13:35:01.152Z,3.33
2023-06-07T13:37:04.139Z,2.63
2023-06-07T13:39:05.799Z,3.20
2023-06-07T13:41:07.331Z,3.22
2023-06-07T13:43:09.029Z,3.22
2023-06-07T13:45:11.222Z,2.78
2023-06-07T13:47:12.755Z,2.92
2023-06-07T13:49:14.264Z,3.13
2023-06-07T13:51:18.048Z,2.72
2023-06-07T13:53:20.924Z,2.92
2023-06-07T13:55:22.550Z,2.83
2023-06-07T13:57:27.870Z,3.50
2023-06-07T13:59:30.070Z,2.83
2023-06-07T14:01:31.861Z,3.20
2023-06-07T14:03:34.156Z,2.65
2023-06-07T14:05:35.952Z,2.88
2023-06-07T14:07:37.515Z,2.50
2023-06-07T14:09:40.384Z,3.03
2023-06-07T14:11:41.934Z,2.50
2023-06-07T14:13:44.069Z,3.03
2023-06-07T14:15:45.675Z,2.80
2023-06-07T14:17:47.300Z,2.67
2023-06-07T14:19:48.892Z,3.00
2023-06-07T14:21:50.588Z,2.70
2023-06-07T14:23:52.244Z,2.60
2023-06-07T14:25:55.312Z,2.38
2023-06-07T14:27:57.114Z,2.88
2023-06-07T14:29:58.753Z,3.03
2023-06-07T14:32:00.410Z,2.80
2023-06-07T14:34:02.032Z,2.80
2023-06-07T14:36:04.281Z,2.45
2023-06-07T14:38:05.871Z,2.63
2023-06-07T14:40:08.703Z,2.70
2023-06-07T14:42:14.902Z,2.97
2023-06-07T14:44:17.412Z,2.92
2023-06-07T14:46:19.206Z,3.00
2023-06-07T14:48:20.935Z,2.85
2023-06-07T14:50:22.570Z,2.92
2023-06-07T14:52:24.406Z,2.88
2023-06-07T14:54:25.999Z,2.95
2023-06-07T14:56:27.647Z,2.45
2023-06-07T14:58:30.575Z,2.80
2023-06-07T15:00:33.496Z,2.80
2023-06-07T15:02:35.247Z,2.47
2023-06-07T15:04:38.099Z,2.60
2023-06-07T15:06:39.898Z,2.53
2023-06-07T15:08:41.446Z,2.65
2023-06-07T15:10:42.975Z,2.72
2023-06-07T15:12:44.620Z,2.85
2023-06-07T15:14:47.543Z,3.10
2023-06-07T15:16:49.065Z,2.90
2023-06-07T15:18:50.663Z,2.97
2023-06-07T15:20:52.171Z,2.80
2023-06-07T15:22:53.782Z,2.95
2023-06-07T15:24:55.343Z,2.60
2023-06-07T15:26:57.144Z,2.40
2023-06-07T15:28:59.427Z,3.25
2023-06-07T15:31:02.528Z,2.60
2023-06-07T15:33:05.132Z,2.72
2023-06-07T15:35:11.676Z,2.97
2023-06-07T15:37:14.357Z,2.80
2023-06-07T15:39:15.924Z,2.97
2023-06-07T15:41:17.546Z,3.13
2023-06-07T15:43:19.143Z,2.75
2023-06-07T15:45:20.705Z,2.72
2023-06-07T15:47:23.631Z,2.97
2023-06-07T15:49:25.233Z,3.25
2023-06-07T15:51:26.890Z,2.75
2023-06-07T15:53:28.546Z,3.10
2023-06-07T15:55:30.060Z,3.03
2023-06-07T15:57:31.665Z,2.85
2023-06-07T15:59:33.422Z,2.60
2023-06-07T16:01:35.032Z,3.13
2023-06-07T16:03:54.221Z,2.80
2023-06-07T16:05:57.089Z,2.70
2023-06-07T16:08:04.425Z,3.42
2023-06-07T16:10:11.217Z,7.57
2023-06-07T16:12:12.744Z,9.00
2023-06-07T16:14:14.254Z,4.70
2023-06-07T16:16:15.837Z,3.42
2023-06-07T16:18:17.409Z,3.00
2023-06-07T16:20:20.335Z,2.80
2023-06-07T16:22:21.871Z,2.65
2023-06-07T16:24:23.413Z,3.13
2023-06-07T16:26:24.969Z,2.90
2023-06-07T16:28:26.529Z,3.05
2023-06-07T16:30:28.078Z,2.90
2023-06-07T16:32:29.682Z,2.95
2023-06-07T16:34:31.289Z,2.70
2023-06-07T16:36:34.166Z,2.80
2023-06-07T16:38:35.797Z,2.90
2023-06-07T16:40:37.988Z,3.10
2023-06-07T16:42:39.528Z,2.88
2023-06-07T16:44:41.105Z,3.10
2023-06-07T16:46:44.410Z,3.00
2023-06-07T16:48:48.116Z,2.60
2023-06-07T16:50:49.699Z,2.55
2023-06-07T16:52:52.659Z,2.90
2023-06-07T16:54:54.296Z,2.40
2023-06-07T16:56:55.989Z,2.92
2023-06-07T16:58:57.550Z,2.83
2023-06-07T17:00:59.130Z,2.70
2023-06-07T17:03:00.783Z,3.00
2023-06-07T17:05:02.533Z,3.25
2023-06-07T17:07:04.681Z,2.40
2023-06-07T17:09:07.583Z,2.55
2023-06-07T17:11:09.237Z,2.80
2023-06-07T17:13:10.871Z,3.20
2023-06-07T17:15:12.463Z,3.05
2023-06-07T17:17:13.985Z,3.47
2023-06-07T17:19:15.611Z,3.40
2023-06-07T17:21:17.159Z,3.10
2023-06-07T17:23:18.730Z,3.10
2023-06-07T17:25:21.775Z,3.15
2023-06-07T17:33:33.601Z,2.90
2023-06-07T17:35:35.198Z,2.92
2023-06-07T17:37:36.853Z,2.90
2023-06-07T17:39:38.544Z,3.05
2023-06-07T17:41:43.241Z,3.08
2023-06-07T17:43:44.810Z,3.25
2023-06-07T17:45:46.437Z,3.22
2023-06-07T17:47:49.520Z,3.25
2023-06-07T17:49:51.111Z,2.88
2023-06-07T17:51:52.677Z,2.83
2023-06-07T17:53:54.218Z,3.15
2023-06-07T17:55:55.782Z,3.13
2023-06-07T17:57:58.761Z,3.55
2023-06-07T18:00:00.340Z,3.28
2023-06-07T18:02:01.935Z,3.80
2023-06-07T18:04:04.063Z,3.40
2023-06-07T18:06:05.738Z,3.22
2023-06-07T18:08:07.356Z,3.15
2023-06-07T18:10:09.650Z,2.88
2023-06-07T18:12:13.917Z,2.83
2023-06-07T18:14:17.157Z,2.80
2023-06-07T18:16:18.784Z,2.90
2023-06-07T18:18:20.346Z,2.80
2023-06-07T18:20:21.967Z,3.10
2023-06-07T18:22:23.521Z,3.05
2023-06-07T18:24:25.095Z,3.40
2023-06-07T18:26:26.685Z,2.60
2023-06-07T18:28:28.398Z,2.90
2023-06-07T18:30:31.368Z,3.83
2023-06-07T18:32:32.975Z,3.63
2023-06-07T18:34:35.311Z,3.80
2023-06-07T18:36:37.053Z,2.53
2023-06-07T18:38:38.613Z,2.88
2023-06-07T18:40:40.194Z,2.88
2023-06-07T18:42:41.784Z,3.00
2023-06-07T18:44:43.393Z,3.22
2023-06-07T18:46:46.807Z,2.13
2023-06-07T18:48:48.450Z,2.80
2023-06-07T18:50:50.075Z,3.33
2023-06-07T18:52:52.362Z,3.13
2023-06-07T18:56:56.327Z,2.95
2023-06-07T18:58:57.911Z,3.05
2023-06-07T19:00:59.566Z,3.13
2023-06-07T19:03:05.045Z,3.35
2023-06-07T19:05:07.813Z,2.90
2023-06-07T19:07:09.606Z,3.10
2023-06-07T19:09:11.141Z,3.00
2023-06-07T19:11:12.814Z,3.17
2023-06-07T19:13:14.381Z,3.20
2023-06-07T19:15:15.955Z,3.72
2023-06-07T19:17:17.557Z,3.38
2023-06-07T19:19:20.446Z,3.33
2023-06-07T19:21:22.006Z,3.00
2023-06-07T19:23:23.583Z,2.85
2023-06-07T19:25:25.222Z,3.55
2023-06-07T19:27:26.778Z,4.93
2023-06-07T19:29:28.686Z,6.88
2023-06-07T19:31:30.411Z,4.43
2023-06-07T19:33:31.987Z,3.50
2023-06-07T19:35:34.916Z,3.40
2023-06-07T19:37:36.431Z,3.22
2023-06-07T19:39:38.073Z,3.00
2023-06-07T19:41:39.604Z,3.22
2023-06-07T19:43:41.782Z,3.22
2023-06-07T19:45:43.438Z,2.90
2023-06-07T19:47:45.143Z,3.35
2023-06-07T19:49:46.716Z,3.28
2023-06-07T19:51:49.595Z,3.35
2023-06-07T19:53:51.151Z,3.20
2023-06-07T19:55:52.734Z,2.63
2023-06-07T19:57:54.759Z,3.10
2023-06-07T19:59:56.352Z,3.60
2023-06-07T20:01:58.008Z,3.08
2023-06-07T20:04:19.130Z,3.13
2023-06-07T20:06:25.378Z,3.17
2023-06-07T20:08:28.260Z,3.10
2023-06-07T20:10:29.834Z,3.13
2023-06-07T20:12:31.488Z,2.95
2023-06-07T20:14:33.253Z,3.30
2023-06-07T20:16:34.867Z,2.75
2023-06-07T20:18:36.591Z,3.05
2023-06-07T20:20:38.144Z,5.72
2023-06-07T20:22:39.689Z,6.93
2023-06-07T20:24:42.569Z,3.60
2023-06-07T20:26:44.146Z,3.92
2023-06-07T20:28:45.676Z,3.13
2023-06-07T20:30:47.271Z,2.92
2023-06-07T20:32:48.872Z,3.60
2023-06-07T20:34:50.428Z,2.80
2023-06-07T20:36:51.999Z,2.88
2023-06-07T20:38:53.543Z,3.53
2023-06-07T20:40:56.458Z,3.20
2023-06-07T20:42:58.020Z,3.50
2023-06-07T20:44:59.560Z,3.45
2023-06-07T20:47:01.166Z,3.80
2023-06-07T20:49:02.954Z,3.63
2023-06-07T20:51:04.530Z,3.20
2023-06-07T20:53:06.120Z,3.30
2023-06-07T20:55:08.400Z,3.22
2023-06-07T20:57:12.080Z,3.10
2023-06-07T20:59:13.766Z,3.35
2023-06-07T21:01:17.397Z,3.00
2023-06-07T21:03:19.067Z,2.90
2023-06-07T21:05:20.779Z,2.83
2023-06-07T21:07:22.513Z,3.05
2023-06-07T21:09:24.051Z,3.70
2023-06-07T21:11:25.663Z,3.42
2023-06-07T21:13:28.694Z,3.67
2023-06-07T21:15:30.267Z,4.07
2023-06-07T21:17:32.261Z,4.32
2023-06-07T21:19:34.218Z,3.63
2023-06-07T21:21:35.825Z,3.67
2023-06-07T21:23:37.570Z,3.72
2023-06-07T21:25:39.223Z,3.20
2023-06-07T21:27:40.732Z,3.42
2023-06-07T21:29:43.628Z,3.15
2023-06-07T21:31:45.650Z,3.47
2023-06-07T21:33:59.822Z,3.13
2023-06-07T21:36:01.356Z,3.65
2023-06-07T21:38:02.958Z,3.80
2023-06-07T21:40:05.846Z,4.13
2023-06-07T21:42:07.989Z,3.90
2023-06-07T21:44:09.674Z,4.90
2023-06-07T21:46:12.572Z,4.10
2023-06-07T21:48:14.315Z,3.97
2023-06-07T21:50:15.967Z,3.67
2023-06-07T21:52:17.644Z,3.55
2023-06-07T21:54:19.198Z,3.72
2023-06-07T21:56:20.723Z,4.13
2023-06-07T21:58:22.356Z,3.50
2023-06-07T22:00:23.918Z,3.65
2023-06-07T22:02:26.998Z,3.95
2023-06-07T22:04:28.646Z,3.63
2023-06-07T22:06:30.263Z,3.30
2023-06-07T22:08:31.802Z,3.53
2023-06-07T22:10:33.379Z,3.08
2023-06-07T22:12:34.933Z,3.80
2023-06-07T22:14:37.009Z,5.18
2023-06-07T22:16:38.661Z,4.13
2023-06-07T22:18:41.841Z,3.60
2023-06-07T22:20:43.814Z,3.20
2023-06-07T22:22:45.432Z,3.35
2023-06-07T22:24:47.134Z,3.40
2023-06-07T22:26:48.679Z,3.35
2023-06-07T22:28:50.224Z,3.30
2023-06-07T22:30:51.781Z,3.58
2023-06-07T22:32:53.349Z,3.40
2023-06-07T22:34:56.722Z,3.55
2023-06-07T22:36:58.223Z,2.80
2023-06-07T22:39:00.467Z,3.30
2023-06-07T22:41:02.039Z,3.40
2023-06-07T22:43:03.592Z,3.30
2023-06-07T22:45:06.305Z,2.78
2023-06-07T22:47:08.322Z,3.33
2023-06-07T22:49:09.868Z,3.22
2023-06-07T22:51:12.897Z,3.67
2023-06-07T22:53:15.443Z,3.75
2023-06-07T22:55:17.109Z,3.38
2023-06-07T22:57:18.666Z,3.88
2023-06-07T22:59:20.356Z,3.42
2023-06-07T23:01:21.948Z,3.63
2023-06-07T23:03:23.624Z,3.58
2023-06-07T23:05:25.400Z,3.28
2023-06-07T23:07:28.387Z,3.30
2023-06-07T23:09:30.049Z,3.30
2023-06-07T23:11:32.088Z,3.55
2023-06-07T23:13:33.675Z,3.15
2023-06-07T23:15:35.445Z,3.25
2023-06-07T23:17:37.050Z,4.22
2023-06-07T23:19:38.643Z,4.47
2023-06-07T23:21:40.212Z,4.43
2023-06-07T23:23:43.134Z,4.03
2023-06-07T23:25:45.137Z,3.65
2023-06-07T23:27:46.841Z,4.30
2023-06-07T23:29:48.426Z,3.90
2023-06-07T23:31:49.992Z,3.50
2023-06-07T23:33:51.612Z,4.50
2023-06-07T23:35:53.201Z,4.57
2023-06-07T23:37:54.801Z,3.33
2023-06-07T23:40:01.865Z,3.70
2023-06-07T23:42:05.085Z,3.60
2023-06-07T23:44:06.931Z,3.53
2023-06-07T23:46:08.666Z,3.55
2023-06-07T23:48:10.275Z,3.65
2023-06-07T23:50:11.911Z,3.53
2023-06-07T23:52:13.484Z,3.47
2023-06-07T23:54:15.085Z,3.60
2023-06-07T23:56:18.083Z,3.80
2023-06-07T23:58:19.633Z,3.40
